Time;durP1;ratioP1;P1;durP2;ratioP2;P2;SDS_P1;SDS_P2;PMS_P1;PMS_P2;Temp;Humidity;BMP_temperature;BMP_pressure;BME280_temperature;BME280_humidity;BME280_pressure;Samples;Min_cycle;Max_cycle;Signal;HPM_P1;HPM_P2
2023/07/07 10:27:52;;;;;;;0.10;0.10;;;;;;;26.87;56.93;99228.63;5065759;27;1572791;-80
2023/07/07 10:30:21;;;;;;;0.10;0.10;;;;;;;26.44;57.79;99239.09;5043202;28;20044;-80
2023/07/07 10:33:39;;;;;;;0.10;0.10;;;;;;;25.77;58.44;99230.03;5056377;28;20044;-81
2023/07/07 10:36:51;;;;;;;0.10;0.10;;;;;;;25.38;58.48;99220.34;5063243;28;20143;-82
2023/07/07 10:39:42;;;;;;;0.10;0.10;;;;;;;25.11;59.91;99235.47;5017141;28;20099;-81
2023/07/07 10:42:43;;;;;;;0.20;0.20;;;;;;;24.73;61.43;99233.59;4974867;28;20121;-80
2023/07/07 10:45:57;;;;;;;0.20;0.20;;;;;;;24.59;62.50;99231.88;4939525;28;20042;-80
2023/07/07 10:53:02;;;;;;;0.20;0.20;;;;;;;24.51;64.07;99161.00;4894693;29;20086;-80
2023/07/07 10:56:12;;;;;;;0.20;0.20;;;;;;;24.67;64.45;99149.38;4887382;29;20167;-82
2023/07/07 10:59:30;;;;;;;0.20;0.20;;;;;;;25.05;63.32;99160.31;4906191;29;20106;-80
2023/07/07 11:02:37;;;;;;;0.10;0.10;;;;;;;25.32;62.63;99194.88;4889860;29;20068;-80
2023/07/07 11:05:47;;;;;;;0.20;0.20;;;;;;;25.34;63.46;99202.81;4905569;29;20056;-81
2023/07/07 11:09:33;;;;;;;0.20;0.20;;;;;;;25.54;62.77;99215.78;4883038;29;20120;-82
2023/07/07 11:13:08;;;;;;;0.30;0.30;;;;;;;25.66;62.80;99221.38;4931057;29;20146;-82
2023/07/07 11:16:27;;;;;;;0.30;0.30;;;;;;;26.44;60.98;99224.47;4870661;29;20061;-81
2023/07/07 11:19:54;;;;;;;0.30;0.30;;;;;;;27.19;59.19;99218.53;4877798;29;20075;-80
2023/07/07 11:22:42;;;;;;;0.40;0.40;;;;;;;28.75;55.10;99206.47;4859904;29;20060;-84
2023/07/07 11:25:22;;;;;;;0.40;0.40;;;;;;;30.45;50.60;99187.22;4873770;29;20083;-81
2023/07/07 11:28:30;;;;;;;0.40;0.40;;;;;;;31.48;48.39;99179.53;4864448;29;20061;-81
2023/07/07 11:31:33;;;;;;;0.20;0.20;;;;;;;31.70;47.21;99149.91;4894976;29;20072;-81
2023/07/07 11:35:31;;;;;;;0.10;0.10;;;;;;;29.79;50.47;99153.09;4858103;29;20165;-80
2023/07/07 11:39:16;;;;;;;0.10;0.10;;;;;;;28.73;52.85;99153.28;4840868;29;20064;-81
2023/07/07 11:42:33;;;;;;;0.10;0.10;;;;;;;28.12;54.25;99162.91;4857152;29;20155;-81
2023/07/07 11:46:50;;;;;;;0.10;0.10;;;;;;;27.39;55.56;99164.09;4844040;29;20065;-80
2023/07/07 11:50:11;;;;;;;0.10;0.10;;;;;;;27.13;57.64;99184.72;4829250;29;20467;-82
2023/07/07 11:52:47;;;;;;;0.10;0.10;;;;;;;26.92;58.65;99186.88;4870639;29;20142;-82
2023/07/07 11:55:31;;;;;;;0.20;0.20;;;;;;;26.54;60.28;99180.56;4913650;29;20134;-82
2023/07/07 11:58:20;;;;;;;0.20;0.20;;;;;;;26.19;60.90;99176.59;4913632;29;20593;-81
2023/07/07 12:00:54;;;;;;;0.20;0.20;;;;;;;26.16;61.46;99173.38;4916155;29;20757;-81
2023/07/07 12:03:55;;;;;;;0.20;0.20;;;;;;;26.20;61.74;99164.38;4910353;29;20052;-80
2023/07/07 12:07:20;;;;;;;0.20;0.20;;;;;;;26.17;61.06;99158.38;4897693;29;20051;-84
2023/07/07 12:10:27;;;;;;;0.20;0.20;;;;;;;26.36;60.69;99160.59;4886240;29;20048;-83
2023/07/07 12:18:05;;;;;;;0.30;0.30;;;;;;;27.67;56.70;99167.69;4894880;29;20512;-81
2023/07/07 12:21:35;;;;;;;0.30;0.30;;;;;;;28.48;54.90;99170.16;4894970;29;20079;-80
2023/07/07 12:24:24;;;;;;;0.20;0.20;;;;;;;28.85;54.04;99167.03;4859593;29;20489;-80
2023/07/07 12:27:13;;;;;;;0.35;0.35;;;;;;;29.84;50.59;99160.31;4861591;29;20145;-79
2023/07/07 12:29:54;;;;;;;0.20;0.20;;;;;;;30.54;48.92;99150.78;4861860;29;20045;-81
2023/07/07 12:32:35;;;;;;;0.40;0.40;;;;;;;31.12;47.69;99142.06;4875708;29;20120;-82
2023/07/07 12:35:26;;;;;;;0.50;0.50;;;;;;;32.20;45.37;99137.59;4875734;29;20512;-81
2023/07/07 12:38:35;;;;;;;0.40;0.40;;;;;;;33.22;42.76;99135.84;4875246;29;20061;-79
2023/07/07 12:41:21;;;;;;;0.20;0.20;;;;;;;32.09;44.31;99112.41;4875043;29;20053;-82
2023/07/07 12:44:05;;;;;;;0.40;0.40;;;;;;;31.55;45.92;99125.84;4834265;29;20054;-81
2023/07/07 12:46:46;;;;;;;0.10;0.10;;;;;;;30.91;46.97;99113.91;4816905;29;20063;-79
2023/07/07 12:49:53;;;;;;;0.13;0.13;;;;;;;29.44;50.77;99122.59;4835148;29;20470;-79
2023/07/07 12:52:26;;;;;;;0.10;0.10;;;;;;;28.89;52.34;99137.38;4889852;29;20052;-82
2023/07/07 12:55:26;;;;;;;0.40;0.40;;;;;;;29.58;51.47;99128.44;4900659;29;20052;-79
2023/07/07 12:58:32;;;;;;;0.50;0.50;;;;;;;30.70;49.01;99112.41;4902847;29;20059;-81
2023/07/07 13:01:30;;;;;;;0.20;0.20;;;;;;;31.88;46.36;99124.97;4950561;28;20505;-80
2023/07/07 13:04:07;;;;;;;0.50;0.50;;;;;;;33.23;42.11;99127.06;4961943;28;20050;-80
2023/07/07 13:06:42;;;;;;;0.20;0.20;;;;;;;34.32;39.73;99100.84;4971750;28;20078;-80
2023/07/07 13:09:12;;;;;;;0.20;0.20;;;;;;;33.12;41.84;99115.06;4971006;28;20047;-81
2023/07/07 13:11:42;;;;;;;0.10;0.10;;;;;;;32.46;42.97;99111.44;4970335;28;20050;-83
2023/07/07 13:14:38;;;;;;;0.10;0.10;;;;;;;31.80;44.89;99112.09;4973935;28;20057;-81
2023/07/07 13:17:16;;;;;;;0.10;0.10;;;;;;;30.17;47.82;99109.59;4972718;28;20053;-81
2023/07/07 13:19:50;;;;;;;0.10;0.10;;;;;;;29.47;50.00;99105.19;4983155;28;20054;-85
2023/07/07 13:22:36;;;;;;;0.10;0.10;;;;;;;29.78;49.35;99096.66;4981371;28;20148;-81
2023/07/07 13:25:08;;;;;;;0.10;0.10;;;;;;;29.57;50.00;99094.28;4988804;28;20093;-80
2023/07/07 13:27:41;;;;;;;0.10;0.10;;;;;;;29.54;50.39;99075.53;4953087;28;20070;-81
2023/07/07 13:30:26;;;;;;;0.10;0.10;;;;;;;28.83;51.40;99083.28;4986153;28;20145;-82
2023/07/07 13:32:55;;;;;;;0.10;0.10;;;;;;;27.78;53.97;99078.44;4981063;28;20046;-82
2023/07/07 13:35:25;;;;;;;0.10;0.10;;;;;;;27.41;55.78;99073.13;4955623;28;20101;-82
2023/07/07 13:37:58;;;;;;;0.10;0.10;;;;;;;27.36;56.02;99079.72;4953744;28;20065;-80
2023/07/07 13:40:25;;;;;;;0.10;0.10;;;;;;;27.34;55.61;99072.94;4953730;28;20053;-84
2023/07/07 13:42:52;;;;;;;0.10;0.10;;;;;;;27.18;56.23;99062.63;4977662;28;20110;-82
2023/07/07 13:45:20;;;;;;;0.10;0.10;;;;;;;27.00;57.21;99083.44;4972343;28;20150;-84
2023/07/07 13:47:51;;;;;;;0.10;0.10;;;;;;;26.80;57.81;99074.19;4953638;28;20054;-83
2023/07/07 13:50:30;;;;;;;0.10;0.10;;;;;;;26.78;58.07;99095.84;4963505;28;20108;-81
2023/07/07 13:53:09;;;;;;;0.10;0.10;;;;;;;26.70;58.91;99092.06;4977698;28;20081;-87
2023/07/07 13:55:37;;;;;;;0.10;0.10;;;;;;;26.44;59.66;99086.13;4980178;28;20054;-86
2023/07/07 13:58:12;;;;;;;0.10;0.10;;;;;;;26.32;60.46;99092.47;4972255;28;20046;-85
2023/07/07 14:00:59;;;;;;;0.10;0.10;;;;;;;26.15;60.78;99074.94;4973205;28;20054;-83
2023/07/07 14:03:28;;;;;;;0.10;0.10;;;;;;;25.82;62.28;99061.22;4981468;28;20066;-85
2023/07/07 14:06:10;;;;;;;0.10;0.10;;;;;;;25.49;63.11;99045.50;4976633;28;20043;-82
2023/07/07 14:08:37;;;;;;;0.10;0.10;;;;;;;25.34;63.94;99046.19;4973613;28;20054;-82
2023/07/07 14:11:06;;;;;;;0.10;0.10;;;;;;;25.19;64.68;99064.19;4972916;28;20066;-85
2023/07/07 14:13:34;;;;;;;0.10;0.10;;;;;;;25.11;65.28;99062.31;4980718;28;20058;-85
2023/07/07 14:16:39;;;;;;;0.10;0.10;;;;;;;25.18;65.25;99072.84;4979819;28;20050;-85
2023/07/07 14:19:10;;;;;;;0.10;0.10;;;;;;;25.19;65.91;99075.25;4949740;29;20498;-84
2023/07/07 14:21:38;;;;;;;0.10;0.10;;;;;;;25.14;66.85;99078.19;4948941;29;20154;-83
2023/07/07 14:24:05;;;;;;;0.10;0.10;;;;;;;24.99;67.98;99065.84;4949580;29;20059;-85
2023/07/07 14:26:33;;;;;;;0.10;0.10;;;;;;;24.83;69.05;99064.84;4951960;29;20076;-90
2023/07/07 14:29:01;;;;;;;0.10;0.10;;;;;;;24.78;69.62;99052.06;4926392;28;20097;-86
2023/07/07 14:33:08;;;;;;;0.10;0.10;;;;;;;24.69;68.86;99040.31;4914164;29;20736;-86
2023/07/07 14:38:02;;;;;;;0.10;0.10;;;;;;;24.59;69.26;99058.06;4852183;29;20053;-83
2023/07/07 14:47:08;;;;;;;0.15;0.15;;;;;;;24.49;69.46;99069.50;4837487;29;22016;-83
2023/07/07 14:51:11;;;;;;;0.10;0.10;;;;;;;24.45;69.92;99090.59;4787030;29;20085;-86
2023/07/07 14:54:24;;;;;;;0.17;0.17;;;;;;;24.34;69.29;99098.44;4760344;30;20055;-86
2023/07/07 14:57:22;;;;;;;0.20;0.20;;;;;;;24.34;69.47;99084.66;4749090;30;20063;-86
2023/07/07 15:04:15;;;;;;;0.20;0.20;;;;;;;24.23;68.99;99084.25;4734042;30;20520;-84
2023/07/07 15:06:48;;;;;;;0.20;0.20;;;;;;;24.22;68.83;99077.09;4761922;30;20056;-87
2023/07/07 15:09:15;;;;;;;0.20;0.20;;;;;;;24.27;68.78;99067.03;4767813;29;20783;-86
2023/07/07 15:11:57;;;;;;;0.10;0.10;;;;;;;24.32;68.07;99075.09;4806462;29;20134;-86
2023/07/07 15:14:24;;;;;;;0.20;0.20;;;;;;;24.28;67.71;99060.34;4797104;29;20062;-86
2023/07/07 15:16:51;;;;;;;0.20;0.20;;;;;;;24.33;67.66;99062.91;4822598;29;20065;-88
2023/07/07 15:19:21;;;;;;;0.10;0.10;;;;;;;24.37;67.35;99064.69;4835928;29;20144;-83
2023/07/07 15:21:49;;;;;;;0.13;0.13;;;;;;;24.37;67.24;99063.88;4835980;29;20150;-87
2023/07/07 15:24:17;;;;;;;0.20;0.20;;;;;;;24.36;66.89;99070.53;4833742;29;20054;-83
2023/07/07 15:26:52;;;;;;;0.17;0.17;;;;;;;24.40;66.83;99054.91;4843179;29;20088;-81
2023/07/07 15:29:40;;;;;;;;;;;;;;;24.37;66.95;99050.09;4857026;28;20053;-81
2023/07/07 15:32:26;;;;;;;;;;;;;;;24.32;67.00;99044.75;4975974;28;19925;-81
2023/07/07 15:35:40;;;;;;;0.20;0.20;;;;;;;24.34;66.83;99064.53;5019009;28;19959;-83
2023/07/07 15:39:22;;;;;;;0.20;0.20;;;;;;;24.40;67.04;99104.56;4949064;28;20081;-83
2023/07/07 15:43:04;;;;;;;0.20;0.20;;;;;;;24.54;66.77;99093.31;4919835;29;20054;-82
2023/07/07 15:47:05;;;;;;;0.10;0.10;;;;;;;24.74;65.78;99091.69;4913060;29;20150;-84
2023/07/07 15:50:11;;;;;;;0.20;0.20;;;;;;;24.81;65.74;99091.97;4792076;29;20521;-80
2023/07/07 15:52:49;;;;;;;0.20;0.20;;;;;;;24.90;65.42;99091.91;4817257;29;20058;-82
2023/07/07 15:56:08;;;;;;;0.20;0.20;;;;;;;24.88;65.76;99083.97;4821968;29;20558;-84
2023/07/07 15:59:33;;;;;;;0.20;0.20;;;;;;;25.20;65.30;99081.59;4788215;29;20662;-83
2023/07/07 16:03:07;;;;;;;0.20;0.20;;;;;;;25.48;64.11;99084.56;4780300;29;20146;-82
2023/07/07 16:05:54;;;;;;;0.20;0.20;;;;;;;25.41;64.37;99085.09;4782377;29;20553;-82
2023/07/07 16:09:03;;;;;;;0.20;0.20;;;;;;;25.43;63.83;99080.03;4763476;30;20056;-84
2023/07/07 16:16:34;;;;;;;0.10;0.10;;;;;;;25.14;65.88;99080.94;4699994;30;20115;-83
2023/07/07 16:20:18;;;;;;;0.10;0.10;;;;;;;24.74;66.85;99078.72;4722853;30;20060;-84
2023/07/07 16:23:40;;;;;;;0.10;0.10;;;;;;;24.28;69.34;99076.91;4710235;30;20128;-81
2023/07/07 16:30:36;;;;;;;0.20;0.20;;;;;;;24.21;70.98;99067.22;4681906;30;20128;-81
2023/07/07 16:33:43;;;;;;;0.10;0.10;;;;;;;24.10;70.76;99063.22;4686576;30;20093;-83
2023/07/07 16:36:40;;;;;;;0.10;0.10;;;;;;;23.94;71.31;99064.94;4711089;30;20162;-81
2023/07/07 16:39:50;;;;;;;0.10;0.10;;;;;;;23.59;71.91;99076.06;4745164;30;20063;-81
2023/07/07 16:42:24;;;;;;;0.20;0.20;;;;;;;23.50;72.71;99081.59;4749221;29;20712;-85
2023/07/07 16:49:56;;;;;;;0.20;0.20;;;;;;;23.05;72.99;99079.25;4833983;29;20096;-83
2023/07/07 16:52:26;;;;;;;0.20;0.20;;;;;;;22.99;73.57;99065.97;4833783;29;20512;-84
2023/07/07 16:54:54;;;;;;;0.10;0.10;;;;;;;23.00;73.41;99059.38;4862882;29;20052;-83
2023/07/07 16:57:21;;;;;;;0.20;0.20;;;;;;;22.97;73.87;99062.75;4907196;29;20581;-82
2023/07/07 16:59:48;;;;;;;0.20;0.20;;;;;;;22.89;74.07;99056.91;4918359;28;20651;-84
2023/07/07 17:02:16;;;;;;;0.20;0.20;;;;;;;22.78;74.65;99061.13;4967243;28;20058;-83
2023/07/07 17:04:43;;;;;;;0.20;0.20;;;;;;;22.71;74.93;99053.38;4949867;28;20043;-85
2023/07/07 17:07:10;;;;;;;0.20;0.20;;;;;;;22.72;75.09;99067.91;4966366;28;20047;-85
2023/07/07 17:09:37;;;;;;;0.20;0.20;;;;;;;22.70;75.77;99090.22;4966033;28;20074;-88
2023/07/07 17:12:10;;;;;;;0.10;0.10;;;;;;;22.60;76.45;99092.50;4966475;28;20138;-85
2023/07/07 17:14:37;;;;;;;0.20;0.20;;;;;;;22.50;77.17;99094.41;4990080;28;20046;-85
2023/07/07 17:17:04;;;;;;;0.10;0.10;;;;;;;22.45;77.74;99091.81;4984733;28;20425;-83
2023/07/07 17:19:31;;;;;;;0.20;0.20;;;;;;;22.37;78.24;99098.13;4985328;28;20054;-87
2023/07/07 17:21:58;;;;;;;0.20;0.20;;;;;;;22.35;78.81;99089.38;4990370;28;20104;-83
2023/07/07 17:24:26;;;;;;;0.10;0.10;;;;;;;22.29;79.36;99091.47;5027236;28;20068;-83
2023/07/07 17:26:53;;;;;;;0.20;0.20;;;;;;;22.23;79.76;99080.94;5032331;28;20135;-81
2023/07/07 17:29:20;;;;;;;0.20;0.20;;;;;;;22.20;80.27;99081.59;5012172;28;20100;-81
2023/07/07 17:31:47;;;;;;;0.20;0.20;;;;;;;22.23;80.35;99084.53;5033648;28;20053;-84
2023/07/07 17:34:15;;;;;;;0.20;0.20;;;;;;;22.27;79.70;99098.44;5038028;28;20049;-82
2023/07/07 17:36:42;;;;;;;0.20;0.20;;;;;;;22.21;80.17;99111.53;5020683;28;20427;-81
2023/07/07 17:39:12;;;;;;;0.20;0.20;;;;;;;22.17;80.34;99099.50;5014168;28;20057;-81
2023/07/07 17:41:39;;;;;;;0.20;0.20;;;;;;;22.21;80.61;99099.72;5029512;28;20136;-82
2023/07/07 17:44:06;;;;;;;0.20;0.20;;;;;;;22.19;80.76;99094.53;5034239;28;20041;-83
2023/07/07 17:46:38;;;;;;;0.20;0.20;;;;;;;22.17;81.08;99087.69;5017618;28;20050;-81
2023/07/07 17:49:13;;;;;;;0.20;0.20;;;;;;;22.07;81.52;99092.34;5037399;28;20148;-85
2023/07/07 17:51:40;;;;;;;0.20;0.20;;;;;;;22.07;81.68;99097.03;5038643;28;20114;-84
2023/07/07 17:54:07;;;;;;;0.20;0.20;;;;;;;22.12;81.83;99102.41;4988468;28;20045;-84
2023/07/07 17:56:34;;;;;;;0.20;0.20;;;;;;;21.88;82.83;99124.78;5023444;28;20099;-83
2023/07/07 17:59:16;;;;;;;0.20;0.20;;;;;;;21.08;88.61;99134.75;5037883;28;20045;-82
2023/07/07 18:01:43;;;;;;;0.20;0.20;;;;;;;20.28;95.39;99131.53;5019265;28;20129;-82
2023/07/07 18:04:10;;;;;;;0.20;0.20;;;;;;;19.98;100.00;99131.06;5022962;28;20423;-82
2023/07/07 18:17:17;;;;;;;0.20;0.20;;;;;;;19.98;100.00;99135.69;5026809;28;20056;-83
2023/07/07 18:20:45;;;;;;;0.20;0.20;;;;;;;19.82;100.00;99138.72;4975370;28;20046;-82
2023/07/07 18:25:12;;;;;;;0.20;0.20;;;;;;;19.83;100.00;99126.66;4979493;28;20132;-83
2023/07/07 18:29:12;;;;;;;0.20;0.20;;;;;;;19.91;100.00;99144.34;4927505;29;20051;-83
2023/07/07 18:32:11;;;;;;;0.20;0.20;;;;;;;19.58;100.00;99133.41;4889383;29;20122;-81
2023/07/07 18:36:19;;;;;;;0.25;0.25;;;;;;;19.65;100.00;99122.06;4884746;29;20061;-87
2023/07/07 18:41:00;;;;;;;0.20;0.20;;;;;;;19.61;100.00;99137.44;4830417;29;20070;-82
2023/07/07 18:45:27;;;;;;;0.20;0.20;;;;;;;19.67;100.00;99136.28;4822837;29;20541;-84
2023/07/07 18:49:44;;;;;;;0.20;0.20;;;;;;;19.46;100.00;99133.06;4803008;29;20054;-82
2023/07/07 18:57:50;;;;;;;0.20;0.20;;;;;;;19.59;100.00;99118.59;4766684;30;20063;-82
2023/07/07 19:02:12;;;;;;;0.20;0.20;;;;;;;19.77;100.00;99114.19;4731661;30;20325;-84
2023/07/07 19:21:01;;;;;;;0.20;0.20;;;;;;;19.52;100.00;99095.44;4804917;29;20215;-84
2023/07/07 19:39:42;;;;;;;0.25;0.25;;;;;;;19.59;100.00;99120.50;4821619;29;20543;-83
2023/07/07 19:44:34;;;;;;;0.20;0.20;;;;;;;19.52;100.00;99125.56;4821086;29;20058;-84
2023/07/07 19:49:34;;;;;;;0.20;0.20;;;;;;;19.45;100.00;99129.50;4774089;29;20125;-85
2023/07/07 20:36:58;;;;;;;0.20;0.20;;;;;;;19.18;100.00;99110.28;4772002;30;20062;-86
2023/07/07 20:41:37;;;;;;;0.20;0.20;;;;;;;19.17;100.00;99101.25;4781492;29;20071;-85
2023/07/07 20:56:07;;;;;;;0.20;0.20;;;;;;;18.97;100.00;99123.47;4765625;30;20171;-85
2023/07/07 21:04:00;;;;;;;0.20;0.20;;;;;;;18.96;100.00;99127.28;4662422;30;20478;-84
2023/07/07 21:12:29;;;;;;;0.30;0.30;;;;;;;18.82;100.00;99121.78;4630120;30;20058;-83
2023/07/07 21:21:50;;;;;;;0.30;0.30;;;;;;;18.63;100.00;99124.44;4609575;31;20152;-84
2023/07/07 21:26:16;;;;;;;0.30;0.30;;;;;;;18.56;100.00;99124.00;4591002;31;20119;-84
2023/07/07 21:29:59;;;;;;;0.20;0.20;;;;;;;18.54;100.00;99110.66;4606412;31;20063;-85
2023/07/07 21:46:26;;;;;;;0.20;0.20;;;;;;;18.26;100.00;99098.72;4589767;31;20070;-84
2023/07/07 21:48:53;;;;;;;0.20;0.20;;;;;;;18.19;100.00;99093.59;4603849;31;20175;-82
2023/07/07 21:51:21;;;;;;;0.20;0.20;;;;;;;18.14;100.00;99082.75;4609991;31;20071;-88
2023/07/07 21:53:48;;;;;;;0.20;0.20;;;;;;;18.16;100.00;99085.19;4636979;30;20396;-88
2023/07/07 21:56:19;;;;;;;0.20;0.20;;;;;;;18.17;100.00;99084.09;4641916;30;20063;-88
2023/07/07 21:58:48;;;;;;;0.30;0.30;;;;;;;18.10;100.00;99078.97;4651096;30;20231;-87
2023/07/07 22:01:17;;;;;;;0.30;0.30;;;;;;;18.11;100.00;99075.16;4740502;30;20066;-85
2023/07/07 22:03:44;;;;;;;0.28;0.28;;;;;;;18.09;100.00;99076.53;4743122;30;20118;-87
2023/07/07 22:06:13;;;;;;;0.20;0.20;;;;;;;17.97;100.00;99079.69;4739520;30;20064;-86
2023/07/07 22:08:40;;;;;;;0.30;0.30;;;;;;;17.89;100.00;99067.50;4760363;30;20059;-85
2023/07/07 22:11:15;;;;;;;0.30;0.30;;;;;;;17.84;100.00;99080.38;4773486;29;20511;-85
2023/07/07 22:13:42;;;;;;;0.30;0.30;;;;;;;17.77;100.00;99069.78;4846805;29;20093;-84
2023/07/07 22:16:11;;;;;;;0.30;0.30;;;;;;;17.81;100.00;99070.06;4874143;29;20052;-84
2023/07/07 22:18:38;;;;;;;0.30;0.30;;;;;;;17.82;100.00;99061.56;4874761;29;20069;-86
2023/07/07 22:21:20;;;;;;;0.30;0.30;;;;;;;17.80;100.00;99054.75;4874510;29;20144;-88
2023/07/07 22:23:47;;;;;;;0.30;0.30;;;;;;;17.84;100.00;99053.91;4874391;29;20068;-85
2023/07/07 22:26:19;;;;;;;0.30;0.30;;;;;;;17.85;100.00;99054.72;4886483;29;20432;-85
2023/07/07 22:28:46;;;;;;;0.30;0.30;;;;;;;17.84;100.00;99050.38;4862149;29;20104;-85
2023/07/07 22:31:15;;;;;;;0.30;0.30;;;;;;;17.83;100.00;99049.56;4902696;29;20481;-85
2023/07/07 22:33:42;;;;;;;0.20;0.20;;;;;;;17.84;100.00;99048.44;4898391;29;20052;-88
2023/07/07 22:45:33;;;;;;;0.30;0.30;;;;;;;17.81;100.00;99056.41;4894830;29;20052;-85
2023/07/07 23:05:09;;;;;;;0.30;0.30;;;;;;;17.71;100.00;99081.88;4930805;29;20584;-88
2023/07/07 23:10:04;;;;;;;0.30;0.30;;;;;;;17.64;100.00;99082.19;4837102;29;20525;-86
2023/07/07 23:14:25;;;;;;;0.30;0.30;;;;;;;17.62;100.00;99089.84;4751298;30;20071;-85
2023/07/07 23:19:25;;;;;;;0.20;0.20;;;;;;;17.57;100.00;99098.09;4744994;30;20094;-86
2023/07/07 23:23:26;;;;;;;0.30;0.30;;;;;;;17.56;100.00;99104.66;4781278;29;20104;-86
2023/07/07 23:39:46;;;;;;;0.30;0.30;;;;;;;17.48;100.00;99095.19;4715296;30;20041;-84
2023/07/07 23:48:18;;;;;;;0.30;0.30;;;;;;;17.44;100.00;99107.78;4785364;30;20059;-84
